Time;durP1;ratioP1;P1;durP2;ratioP2;P2;SDS_P1;SDS_P2;PMS_P1;PMS_P2;Temp;Humidity;BMP_temperature;BMP_pressure;BME280_temperature;BME280_humidity;BME280_pressure;Samples;Min_cycle;Max_cycle;Signal;HPM_P1;HPM_P2
2023/09/03 00:04:30;;;;;;;17.83;10.80;;;;;;;12.41;100.00;102578.75;10434890;28;20534;-69
2023/09/03 00:09:33;;;;;;;18.35;11.48;;;;;;;12.31;100.00;102588.34;10441586;28;20041;-68
2023/09/03 00:14:33;;;;;;;20.77;12.55;;;;;;;12.23;100.00;102580.34;10441064;28;20037;-68
2023/09/03 00:19:34;;;;;;;20.60;13.10;;;;;;;12.19;100.00;102548.72;10444890;28;20076;-68
2023/09/03 00:24:34;;;;;;;20.38;13.27;;;;;;;12.16;100.00;102543.66;10439530;28;20056;-69
2023/09/03 00:29:36;;;;;;;18.88;12.73;;;;;;;12.13;100.00;102549.63;10441030;28;20042;-68
2023/09/03 00:34:37;;;;;;;23.00;14.63;;;;;;;11.89;100.00;102523.69;10443286;28;20044;-68
2023/09/03 00:39:37;;;;;;;26.52;14.05;;;;;;;12.16;100.00;102568.50;10419952;28;20033;-69
2023/09/03 00:44:38;;;;;;;22.98;13.93;;;;;;;12.13;100.00;102577.22;10445346;28;20393;-67
2023/09/03 00:49:42;;;;;;;24.60;14.70;;;;;;;12.08;100.00;102588.09;10421851;28;20228;-69
2023/09/03 00:54:42;;;;;;;22.92;12.98;;;;;;;12.04;100.00;102575.81;10401344;28;20598;-69
2023/09/03 00:59:43;;;;;;;22.02;14.30;;;;;;;11.98;100.00;102572.03;10425421;28;20071;-69
2023/09/03 01:04:43;;;;;;;30.67;16.38;;;;;;;11.99;100.00;102595.81;10403252;28;20159;-69
2023/09/03 01:09:44;;;;;;;22.75;14.43;;;;;;;12.00;100.00;102591.97;10433882;28;20041;-69
2023/09/03 01:15:04;;;;;;;20.83;14.07;;;;;;;11.91;100.00;102561.03;10421671;28;20083;-68
2023/09/03 01:20:25;;;;;;;25.85;16.35;;;;;;;11.97;100.00;102575.88;10410660;28;20040;-68
2023/09/03 01:25:54;;;;;;;24.40;14.90;;;;;;;11.97;100.00;102561.19;10426848;28;20049;-69
2023/09/03 01:31:03;;;;;;;25.58;15.43;;;;;;;11.96;100.00;102549.31;10438796;28;20064;-69
2023/09/03 01:36:06;;;;;;;24.05;16.10;;;;;;;11.77;100.00;102504.22;10422170;28;20055;-69
2023/09/03 01:41:06;;;;;;;26.40;15.68;;;;;;;12.06;100.00;102554.34;10439135;28;20044;-68
2023/09/03 01:46:07;;;;;;;24.63;14.45;;;;;;;12.08;100.00;102539.25;10432492;28;20040;-69
2023/09/03 01:51:20;;;;;;;26.10;13.82;;;;;;;12.08;100.00;102521.84;10436799;28;20037;-69
2023/09/03 01:56:22;;;;;;;26.38;14.45;;;;;;;12.05;100.00;102512.13;10437376;28;20040;-69
2023/09/03 02:01:22;;;;;;;24.75;13.30;;;;;;;12.07;100.00;102509.97;10434774;28;20037;-69
2023/09/03 02:06:23;;;;;;;22.88;14.40;;;;;;;12.08;100.00;102503.38;10406674;28;20119;-68
2023/09/03 02:11:23;;;;;;;27.15;15.13;;;;;;;12.10;100.00;102498.47;10421675;28;20041;-69
2023/09/03 02:16:24;;;;;;;26.35;14.48;;;;;;;12.09;100.00;102504.19;10413730;28;20036;-69
2023/09/03 02:21:24;;;;;;;24.48;13.60;;;;;;;11.99;100.00;102499.22;10433156;28;20042;-69
2023/09/03 02:26:25;;;;;;;24.55;14.07;;;;;;;11.96;100.00;102509.84;10436769;28;20561;-68
2023/09/03 02:31:25;;;;;;;21.45;14.13;;;;;;;11.91;100.00;102521.56;10413766;28;20099;-69
2023/09/03 02:36:26;;;;;;;22.55;14.00;;;;;;;11.82;100.00;102544.91;10438757;28;20064;-67
2023/09/03 02:41:27;;;;;;;19.27;12.00;;;;;;;11.67;100.00;102542.47;10432950;28;20133;-68
2023/09/03 02:46:28;;;;;;;29.77;15.07;;;;;;;11.64;100.00;102559.47;10405056;28;20037;-68
2023/09/03 02:51:28;;;;;;;24.77;14.00;;;;;;;11.56;100.00;102556.97;10434302;28;20041;-68
2023/09/03 02:56:29;;;;;;;24.58;14.55;;;;;;;11.48;100.00;102556.13;10402780;28;20171;-69
2023/09/03 03:01:30;;;;;;;25.88;14.95;;;;;;;11.45;100.00;102537.28;10407026;28;20044;-68
2023/09/03 03:06:30;;;;;;;25.02;14.80;;;;;;;11.45;100.00;102556.59;10415773;28;20414;-68
2023/09/03 03:11:31;;;;;;;27.55;16.20;;;;;;;11.44;100.00;102548.53;10419178;28;20105;-68
2023/09/03 03:16:31;;;;;;;27.45;15.98;;;;;;;11.37;100.00;102551.31;10433610;28;20041;-69
2023/09/03 03:21:32;;;;;;;30.35;15.93;;;;;;;11.29;100.00;102548.81;10419308;28;20041;-69
2023/09/03 03:26:34;;;;;;;31.48;16.73;;;;;;;11.23;100.00;102544.16;10430895;28;20124;-69
2023/09/03 03:31:34;;;;;;;29.88;16.02;;;;;;;11.20;100.00;102552.88;10433135;28;20044;-69
2023/09/03 03:36:35;;;;;;;30.27;15.52;;;;;;;11.11;100.00;102558.59;10438023;28;20500;-68
2023/09/03 03:41:36;;;;;;;26.63;14.75;;;;;;;11.03;100.00;102546.97;10434676;28;20488;-69
2023/09/03 03:46:36;;;;;;;26.17;14.38;;;;;;;11.06;100.00;102552.06;10405660;28;20030;-69
2023/09/03 03:51:37;;;;;;;26.52;15.40;;;;;;;11.03;100.00;102553.34;10437066;28;20091;-68
2023/09/03 03:56:37;;;;;;;27.38;15.85;;;;;;;11.03;100.00;102533.19;10428942;28;20049;-69
2023/09/03 04:01:38;;;;;;;25.92;16.08;;;;;;;11.11;100.00;102550.34;10435071;28;20044;-68
2023/09/03 04:06:38;;;;;;;28.45;16.70;;;;;;;11.16;100.00;102565.38;10434042;28;20033;-68
2023/09/03 04:11:39;;;;;;;27.00;16.25;;;;;;;11.17;100.00;102591.91;10403577;28;20041;-68
2023/09/03 04:16:39;;;;;;;26.05;14.82;;;;;;;11.20;100.00;102610.75;10432790;28;20060;-68
2023/09/03 04:21:40;;;;;;;30.70;15.93;;;;;;;11.20;100.00;102602.47;10432637;28;20044;-68
2023/09/03 04:26:42;;;;;;;30.88;17.75;;;;;;;11.21;100.00;102598.69;10431185;28;20074;-68
2023/09/03 04:31:42;;;;;;;26.30;15.82;;;;;;;11.22;100.00;102600.34;10431559;28;20088;-68
2023/09/03 04:36:44;;;;;;;22.80;14.75;;;;;;;11.17;100.00;102605.69;10429253;28;20046;-68
2023/09/03 04:41:44;;;;;;;27.63;15.73;;;;;;;11.10;100.00;102625.84;10440331;28;20029;-71
2023/09/03 04:46:45;;;;;;;25.25;15.18;;;;;;;11.05;100.00;102644.09;10442556;28;20111;-69
2023/09/03 04:51:46;;;;;;;24.73;14.57;;;;;;;10.98;100.00;102644.09;10437122;28;20421;-68
2023/09/03 04:56:47;;;;;;;19.88;13.57;;;;;;;10.96;100.00;102653.66;10445136;28;20037;-68
2023/09/03 05:01:47;;;;;;;28.35;15.20;;;;;;;10.92;100.00;102655.97;10436646;28;20037;-68
2023/09/03 05:06:48;;;;;;;21.65;13.50;;;;;;;10.94;100.00;102664.88;10439495;28;20038;-68
2023/09/03 05:11:48;;;;;;;22.08;13.70;;;;;;;10.98;100.00;102657.88;10441682;28;20136;-68
2023/09/03 05:16:49;;;;;;;23.05;14.18;;;;;;;11.05;100.00;102658.69;10438504;28;20045;-66
2023/09/03 05:21:49;;;;;;;24.40;13.88;;;;;;;11.16;100.00;102653.59;10440211;28;20071;-68
2023/09/03 05:26:50;;;;;;;23.38;13.98;;;;;;;11.21;100.00;102653.81;10434128;28;20049;-68
2023/09/03 05:31:52;;;;;;;24.45;13.70;;;;;;;11.42;100.00;102685.78;10437699;28;20097;-68
2023/09/03 05:36:52;;;;;;;21.30;13.48;;;;;;;11.56;100.00;102683.84;10440039;28;20042;-68
2023/09/03 05:41:53;;;;;;;21.60;13.00;;;;;;;11.69;100.00;102681.03;10435841;28;20058;-68
2023/09/03 05:46:53;;;;;;;22.90;12.88;;;;;;;11.77;100.00;102669.75;10439889;28;20047;-69
2023/09/03 05:51:54;;;;;;;19.30;12.30;;;;;;;12.05;100.00;102676.88;10434550;28;20034;-68
2023/09/03 05:56:54;;;;;;;19.80;12.38;;;;;;;12.20;100.00;102674.69;10434913;28;20045;-68
2023/09/03 06:01:55;;;;;;;17.75;11.18;;;;;;;12.34;100.00;102671.84;10432870;28;20033;-68
2023/09/03 06:06:55;;;;;;;15.43;10.98;;;;;;;12.50;100.00;102666.63;10442202;28;20440;-68
2023/09/03 06:11:56;;;;;;;16.20;10.93;;;;;;;12.67;100.00;102686.28;10434838;28;20379;-68
2023/09/03 06:16:56;;;;;;;14.90;10.25;;;;;;;12.80;100.00;102695.53;10439663;28;20051;-67
2023/09/03 06:21:57;;;;;;;14.77;10.40;;;;;;;12.94;100.00;102708.19;10436138;28;20033;-67
2023/09/03 06:26:57;;;;;;;17.70;11.88;;;;;;;13.12;100.00;102699.06;10432007;28;20034;-68
2023/09/03 06:31:58;;;;;;;16.45;11.27;;;;;;;13.30;100.00;102718.50;10438054;28;20036;-68
2023/09/03 06:36:58;;;;;;;13.35;9.93;;;;;;;13.52;100.00;102715.31;10437062;28;20080;-68
2023/09/03 06:41:59;;;;;;;19.33;10.57;;;;;;;13.81;100.00;102722.03;10451708;28;20033;-68
2023/09/03 06:46:59;;;;;;;14.25;9.77;;;;;;;14.03;100.00;102721.53;10438512;28;20056;-69
2023/09/03 06:52:00;;;;;;;13.07;8.60;;;;;;;14.17;100.00;102714.75;10433376;28;20045;-69
2023/09/03 06:57:00;;;;;;;11.10;8.77;;;;;;;14.31;100.00;102713.47;10436182;28;20617;-66
2023/09/03 07:02:01;;;;;;;13.25;8.02;;;;;;;14.49;100.00;102711.72;10429601;28;20121;-68
2023/09/03 07:07:04;;;;;;;12.13;7.38;;;;;;;14.72;100.00;102719.31;10439219;28;20041;-68
2023/09/03 07:12:05;;;;;;;10.80;7.93;;;;;;;14.92;100.00;102727.31;10430656;28;20446;-68
2023/09/03 07:17:06;;;;;;;10.43;8.27;;;;;;;15.26;100.00;102727.59;10439630;28;20045;-68
2023/09/03 07:22:06;;;;;;;11.05;8.10;;;;;;;15.50;100.00;102732.06;10431074;28;20041;-67
2023/09/03 07:27:07;;;;;;;9.30;7.30;;;;;;;15.77;100.00;102739.88;10426232;28;20083;-67
2023/09/03 07:32:07;;;;;;;13.98;8.48;;;;;;;16.07;100.00;102752.78;10423786;28;20048;-67
2023/09/03 07:37:07;;;;;;;13.70;9.75;;;;;;;16.36;100.00;102741.69;10431810;28;20052;-67
2023/09/03 07:42:08;;;;;;;16.65;9.60;;;;;;;16.69;100.00;102732.56;10435674;28;20100;-68
2023/09/03 07:47:08;;;;;;;12.70;8.23;;;;;;;16.89;100.00;102744.09;10428144;28;20037;-68
2023/09/03 07:52:11;;;;;;;13.30;8.40;;;;;;;16.97;100.00;102740.06;10422605;28;20136;-68
2023/09/03 07:57:12;;;;;;;13.43;8.93;;;;;;;17.09;100.00;102751.09;10420162;28;20048;-68
2023/09/03 08:02:12;;;;;;;11.93;8.43;;;;;;;17.15;100.00;102755.66;10435441;28;20365;-68
2023/09/03 08:07:13;;;;;;;11.38;7.82;;;;;;;17.33;100.00;102774.03;10433863;28;20041;-67
2023/09/03 08:12:13;;;;;;;8.13;7.15;;;;;;;17.49;100.00;102770.41;10419379;28;20406;-68
2023/09/03 08:17:14;;;;;;;7.93;6.63;;;;;;;17.57;100.00;102776.63;10376627;28;20482;-68
2023/09/03 08:22:14;;;;;;;8.55;6.25;;;;;;;17.59;100.00;102774.44;10378024;28;20045;-68
2023/09/03 08:27:15;;;;;;;5.93;4.70;;;;;;;17.67;100.00;102769.28;10380009;28;20044;-68
2023/09/03 08:32:16;;;;;;;7.88;5.45;;;;;;;17.67;100.00;102776.78;10390633;28;20042;-67
2023/09/03 08:37:16;;;;;;;6.15;2.92;;;;;;;17.87;100.00;102765.97;10435604;28;20060;-68
2023/09/03 08:42:16;;;;;;;4.22;2.20;;;;;;;18.21;100.00;102773.34;10434813;28;20447;-68
2023/09/03 08:47:17;;;;;;;3.75;2.38;;;;;;;18.57;100.00;102773.78;10440657;28;20037;-68
2023/09/03 08:52:17;;;;;;;3.65;2.40;;;;;;;18.69;100.00;102775.31;10431088;28;20038;-68
2023/09/03 08:57:18;;;;;;;3.80;2.05;;;;;;;18.70;100.00;102782.56;10382319;28;20129;-67
2023/09/03 09:02:18;;;;;;;5.72;2.47;;;;;;;18.82;100.00;102776.88;10430788;28;20037;-68
2023/09/03 09:07:19;;;;;;;4.93;2.13;;;;;;;19.07;100.00;102778.22;10421112;28;20052;-68
2023/09/03 09:12:28;;;;;;;4.55;2.10;;;;;;;19.19;100.00;102786.44;10441480;28;20037;-68
2023/09/03 09:17:41;;;;;;;2.22;1.48;;;;;;;19.42;100.00;102788.84;10436592;28;20103;-67
2023/09/03 09:22:42;;;;;;;3.65;2.10;;;;;;;19.63;100.00;102805.75;10436105;28;20119;-68
2023/09/03 09:27:43;;;;;;;3.17;1.30;;;;;;;19.75;100.00;102793.28;10403906;28;20047;-68
2023/09/03 09:32:43;;;;;;;3.67;1.48;;;;;;;19.88;100.00;102791.94;10439627;28;20052;-68
2023/09/03 09:37:45;;;;;;;3.67;2.00;;;;;;;20.06;100.00;102795.41;10434656;28;20584;-68
2023/09/03 09:42:53;;;;;;;2.42;1.50;;;;;;;20.31;100.00;102803.91;10436482;28;20060;-68
2023/09/03 09:48:07;;;;;;;3.28;1.63;;;;;;;20.04;100.00;102797.66;10432400;28;20037;-68
2023/09/03 09:53:24;;;;;;;3.95;1.63;;;;;;;20.21;100.00;102808.63;10441518;28;20041;-67
2023/09/03 09:58:34;;;;;;;2.88;1.38;;;;;;;20.38;100.00;102803.66;10438077;28;20080;-68
2023/09/03 10:03:44;;;;;;;1.52;1.23;;;;;;;20.43;100.00;102794.47;10441200;28;20416;-68
2023/09/03 10:08:46;;;;;;;3.63;1.20;;;;;;;20.74;100.00;102785.03;10432910;28;20045;-68
2023/09/03 10:13:47;;;;;;;2.15;1.30;;;;;;;21.03;100.00;102792.91;10438605;28;20045;-68
2023/09/03 10:18:49;;;;;;;1.75;1.30;;;;;;;20.97;100.00;102796.84;10435237;28;20064;-67
2023/09/03 10:23:50;;;;;;;3.38;1.40;;;;;;;21.00;100.00;102790.69;10439426;28;20432;-68
2023/09/03 10:28:53;;;;;;;2.45;1.10;;;;;;;21.13;100.00;102780.91;10437186;28;20038;-68
2023/09/03 10:33:53;;;;;;;2.28;0.95;;;;;;;21.12;100.00;102801.59;10417583;28;20097;-67
2023/09/03 10:38:55;;;;;;;2.15;1.10;;;;;;;21.07;100.00;102794.03;10430752;28;20033;-67
2023/09/03 10:43:55;;;;;;;2.30;1.40;;;;;;;21.39;100.00;102800.50;10413184;28;20653;-67
2023/09/03 10:48:56;;;;;;;4.07;1.10;;;;;;;21.87;100.00;102807.47;10425479;28;20038;-67
2023/09/03 10:53:57;;;;;;;2.95;1.30;;;;;;;22.27;100.00;102797.25;10408894;28;20050;-66
2023/09/03 10:59:00;;;;;;;2.25;1.00;;;;;;;22.26;100.00;102803.13;10398327;28;20042;-67
2023/09/03 11:04:02;;;;;;;1.60;0.77;;;;;;;21.71;100.00;102798.25;10424439;28;20052;-67
2023/09/03 11:09:03;;;;;;;1.45;0.70;;;;;;;21.89;100.00;102799.59;10441519;28;20029;-68
2023/09/03 11:14:10;;;;;;;3.85;1.00;;;;;;;22.31;100.00;102801.16;10415489;28;20048;-68
2023/09/03 11:19:10;;;;;;;1.52;0.80;;;;;;;22.35;100.00;102788.22;10431487;28;20048;-68
2023/09/03 11:24:18;;;;;;;1.35;0.70;;;;;;;22.44;100.00;102784.81;10432911;28;20041;-68
2023/09/03 11:29:23;;;;;;;1.25;1.15;;;;;;;22.40;100.00;102786.53;10414662;28;20033;-68
2023/09/03 11:34:23;;;;;;;0.88;0.60;;;;;;;22.50;100.00;102786.47;10415207;28;20076;-68
2023/09/03 11:39:24;;;;;;;1.80;1.25;;;;;;;22.93;100.00;102800.81;10428622;28;20053;-68
2023/09/03 11:44:26;;;;;;;1.52;0.70;;;;;;;23.38;100.00;102784.75;10419138;28;20053;-68
2023/09/03 11:49:26;;;;;;;1.08;0.60;;;;;;;23.69;100.00;102759.09;10413590;28;20549;-68
2023/09/03 11:54:27;;;;;;;1.20;0.73;;;;;;;23.64;100.00;102776.03;10422260;28;20068;-68
2023/09/03 11:59:27;;;;;;;1.67;0.90;;;;;;;24.09;100.00;102777.50;10415610;28;20034;-69
2023/09/03 12:04:27;;;;;;;3.05;0.65;;;;;;;24.99;100.00;102760.75;10433500;28;20063;-68
2023/09/03 12:09:28;;;;;;;1.55;0.75;;;;;;;25.99;100.00;102754.72;10429750;28;20044;-69
2023/09/03 12:14:29;;;;;;;1.27;0.60;;;;;;;26.93;98.20;102746.66;10434219;28;20052;-68
2023/09/03 12:19:39;;;;;;;1.38;0.68;;;;;;;27.53;91.51;102746.25;10434567;28;20045;-68
2023/09/03 12:24:40;;;;;;;2.65;0.98;;;;;;;26.04;95.72;102763.06;10434561;28;20072;-68
2023/09/03 12:29:41;;;;;;;1.38;0.50;;;;;;;26.11;94.28;102757.03;10432645;28;20048;-69
2023/09/03 12:34:49;;;;;;;1.75;0.80;;;;;;;25.86;89.90;102732.94;10434762;28;20053;-68
2023/09/03 12:39:49;;;;;;;0.80;0.55;;;;;;;27.01;92.73;102753.53;10435272;28;20041;-69
2023/09/03 12:44:51;;;;;;;1.13;0.57;;;;;;;27.58;87.95;102746.09;10433819;28;20049;-69
2023/09/03 12:49:51;;;;;;;1.73;0.60;;;;;;;28.03;82.75;102730.09;10434638;28;20036;-68
2023/09/03 12:54:52;;;;;;;1.35;0.60;;;;;;;28.03;79.71;102733.78;10425842;28;20038;-69
2023/09/03 12:59:52;;;;;;;0.95;0.60;;;;;;;28.80;81.35;102736.22;10435732;28;20284;-69
2023/09/03 13:04:53;;;;;;;0.90;0.60;;;;;;;29.39;76.14;102725.09;10435660;28;20037;-69
2023/09/03 13:09:53;;;;;;;1.98;0.52;;;;;;;27.73;77.38;102727.81;10444516;28;20040;-69
2023/09/03 13:14:54;;;;;;;0.90;0.50;;;;;;;26.85;81.29;102725.66;10436714;28;20041;-68
2023/09/03 13:19:54;;;;;;;1.83;0.88;;;;;;;27.58;83.74;102716.97;10443286;28;20049;-69
2023/09/03 13:24:55;;;;;;;2.22;0.60;;;;;;;28.21;79.61;102708.34;10437921;28;20041;-69
2023/09/03 13:29:55;;;;;;;1.35;0.70;;;;;;;27.54;77.87;102699.81;10442753;28;20045;-67
2023/09/03 13:34:56;;;;;;;1.33;0.70;;;;;;;27.58;79.71;102698.00;10438550;28;20049;-69
2023/09/03 13:39:56;;;;;;;1.15;0.50;;;;;;;26.92;82.99;102708.25;10441148;28;20029;-68
2023/09/03 13:44:57;;;;;;;1.33;0.80;;;;;;;26.06;81.24;102707.13;10441659;28;20034;-68
2023/09/03 13:49:57;;;;;;;1.15;1.00;;;;;;;25.20;86.75;102726.56;10438428;28;20128;-68
2023/09/03 13:54:58;;;;;;;1.40;0.70;;;;;;;24.26;91.44;102647.53;10441859;28;20041;-69
2023/09/03 13:59:58;;;;;;;1.77;0.73;;;;;;;25.37;90.40;102724.03;10434141;28;20029;-68
2023/09/03 14:04:58;;;;;;;3.05;0.70;;;;;;;25.39;89.58;102729.38;10427946;28;20033;-68
2023/09/03 14:09:59;;;;;;;1.35;0.60;;;;;;;25.70;86.86;102723.97;10442547;28;20040;-69
2023/09/03 14:14:59;;;;;;;1.42;0.60;;;;;;;26.46;89.34;102729.09;10435455;28;20064;-68
2023/09/03 14:20:01;;;;;;;0.50;0.43;;;;;;;27.24;82.50;102714.78;10438428;28;20527;-69
2023/09/03 14:25:01;;;;;;;0.85;0.52;;;;;;;27.23;78.67;102694.16;10432897;28;20401;-69
2023/09/03 14:30:03;;;;;;;1.85;0.57;;;;;;;27.49;83.05;102710.41;10434516;28;20052;-68
2023/09/03 14:35:03;;;;;;;1.75;0.65;;;;;;;27.51;81.23;102708.09;10435811;28;20049;-68
2023/09/03 14:40:05;;;;;;;1.55;0.75;;;;;;;27.46;79.51;102705.44;10438485;28;20037;-68
2023/09/03 14:45:06;;;;;;;1.85;0.85;;;;;;;26.70;80.85;102711.91;10438576;28;20033;-68
2023/09/03 14:50:07;;;;;;;1.10;0.70;;;;;;;26.31;82.49;102716.19;10436114;28;20048;-69
2023/09/03 14:55:08;;;;;;;0.88;0.68;;;;;;;25.59;83.33;102714.88;10437792;28;20041;-69
2023/09/03 15:00:09;;;;;;;1.15;0.60;;;;;;;25.12;90.15;102737.44;10431774;28;20038;-69
2023/09/03 15:05:09;;;;;;;1.58;0.73;;;;;;;25.95;84.96;102708.53;10431869;28;20409;-68
2023/09/03 15:10:10;;;;;;;1.38;0.68;;;;;;;26.50;84.86;102701.91;10438393;28;20037;-68
2023/09/03 15:15:10;;;;;;;2.65;0.80;;;;;;;26.71;83.18;102677.69;10435079;28;20048;-69
2023/09/03 15:20:11;;;;;;;2.00;0.70;;;;;;;27.36;83.60;102698.06;10433455;28;20044;-69
2023/09/03 15:25:12;;;;;;;1.38;0.70;;;;;;;27.06;80.07;102686.41;10431327;28;20041;-68
2023/09/03 15:30:12;;;;;;;0.93;0.77;;;;;;;26.63;82.23;102686.09;10438982;28;20038;-69
2023/09/03 15:35:13;;;;;;;1.92;0.65;;;;;;;27.20;87.07;102702.44;10437259;28;20057;-68
2023/09/03 15:40:13;;;;;;;3.00;1.10;;;;;;;26.95;83.06;102690.63;10433889;28;20037;-67
2023/09/03 15:45:14;;;;;;;1.60;0.90;;;;;;;27.00;83.37;102704.66;10435235;28;20110;-67
2023/09/03 15:50:14;;;;;;;0.90;0.70;;;;;;;26.46;86.24;102700.88;10434016;28;20041;-68
2023/09/03 15:55:15;;;;;;;0.80;0.60;;;;;;;25.54;88.73;102707.34;10434787;28;20044;-68
2023/09/03 16:00:15;;;;;;;2.80;0.60;;;;;;;25.07;91.08;102719.75;10428254;28;20038;-68
2023/09/03 16:05:16;;;;;;;2.60;1.10;;;;;;;24.68;92.43;102727.47;10403589;28;20044;-68
2023/09/03 16:10:16;;;;;;;0.82;0.60;;;;;;;24.34;97.30;102747.34;10417070;28;20075;-67
2023/09/03 16:15:17;;;;;;;1.50;1.00;;;;;;;23.90;94.74;102728.81;10401120;28;20353;-68
2023/09/03 16:20:17;;;;;;;2.03;0.95;;;;;;;23.63;98.58;102751.88;10414376;28;20104;-68
2023/09/03 16:25:18;;;;;;;1.77;0.77;;;;;;;23.32;96.67;102738.97;10408874;28;20084;-68
2023/09/03 16:30:18;;;;;;;1.67;0.95;;;;;;;23.22;100.00;102760.72;10415409;28;20038;-69
2023/09/03 16:35:19;;;;;;;3.42;0.95;;;;;;;22.87;100.00;102760.69;10417539;28;20110;-66
2023/09/03 16:40:19;;;;;;;3.55;2.30;;;;;;;22.59;100.00;102772.66;10401569;28;21194;-67
2023/09/03 16:45:20;;;;;;;3.58;1.05;;;;;;;22.33;100.00;102765.22;10422339;28;20068;-67
2023/09/03 16:50:21;;;;;;;2.35;1.17;;;;;;;22.19;100.00;102783.78;10430593;28;20030;-68
2023/09/03 16:55:21;;;;;;;1.42;1.10;;;;;;;21.94;100.00;102782.75;10440568;28;20098;-68
2023/09/03 17:00:23;;;;;;;3.00;1.48;;;;;;;21.84;100.00;102790.34;10443928;28;20040;-69
2023/09/03 17:05:23;;;;;;;1.20;1.00;;;;;;;21.83;100.00;102795.13;10443261;28;20041;-68
2023/09/03 17:10:24;;;;;;;3.05;1.35;;;;;;;21.67;100.00;102813.09;10447837;28;20493;-68
2023/09/03 17:15:24;;;;;;;1.08;0.80;;;;;;;21.46;100.00;102801.91;10443118;28;20049;-68
2023/09/03 17:20:25;;;;;;;2.25;1.40;;;;;;;21.23;100.00;102802.44;10443792;28;20033;-68
2023/09/03 17:25:25;;;;;;;3.65;1.50;;;;;;;20.94;100.00;102805.81;10436373;28;20068;-68
2023/09/03 17:30:26;;;;;;;4.20;1.40;;;;;;;20.66;100.00;102798.75;10445311;28;20410;-66
2023/09/03 17:35:26;;;;;;;2.92;0.85;;;;;;;20.46;100.00;102800.31;10442111;28;20090;-68
2023/09/03 17:40:27;;;;;;;2.13;1.20;;;;;;;20.29;100.00;102792.16;10444089;28;20060;-67
2023/09/03 17:45:28;;;;;;;2.53;1.20;;;;;;;20.13;100.00;102790.41;10431816;28;20049;-69
2023/09/03 17:50:28;;;;;;;3.15;1.20;;;;;;;19.95;100.00;102786.97;10472722;28;20037;-68
2023/09/03 17:55:29;;;;;;;4.75;1.13;;;;;;;19.76;100.00;102799.69;10441063;28;20252;-69
2023/09/03 18:00:29;;;;;;;3.15;1.27;;;;;;;19.52;100.00;102800.09;10435040;28;20041;-69
2023/09/03 18:05:30;;;;;;;4.38;2.05;;;;;;;19.33;100.00;102798.84;10441799;28;20156;-69
2023/09/03 18:10:32;;;;;;;5.25;1.60;;;;;;;19.18;100.00;102795.91;10475168;28;20053;-68
2023/09/03 18:15:33;;;;;;;4.65;1.35;;;;;;;19.08;100.00;102788.25;10440648;28;20099;-68
2023/09/03 18:20:33;;;;;;;4.13;1.30;;;;;;;18.98;100.00;102780.66;10439928;28;20063;-68
2023/09/03 18:25:34;;;;;;;2.35;1.00;;;;;;;18.86;100.00;102779.97;10440005;28;20068;-68
2023/09/03 18:30:34;;;;;;;3.58;1.42;;;;;;;18.71;100.00;102781.47;10441666;28;20052;-68
2023/09/03 18:35:35;;;;;;;2.60;1.17;;;;;;;18.54;100.00;102776.00;10353567;28;20046;-68
2023/09/03 18:40:37;;;;;;;1.80;1.30;;;;;;;18.38;100.00;102776.09;10375015;28;20072;-68
2023/09/03 18:45:37;;;;;;;4.85;1.50;;;;;;;18.23;100.00;102783.16;10373958;28;20152;-69
2023/09/03 18:50:38;;;;;;;4.60;1.38;;;;;;;18.12;100.00;102786.91;10351267;28;20053;-69
2023/09/03 18:55:38;;;;;;;5.30;1.60;;;;;;;18.00;100.00;102795.38;10349195;28;20058;-69
2023/09/03 19:00:39;;;;;;;2.47;1.63;;;;;;;17.88;100.00;102794.66;10331160;28;20125;-69
2023/09/03 19:05:41;;;;;;;5.40;1.80;;;;;;;17.75;100.00;102793.06;10352949;28;20038;-69
2023/09/03 19:10:41;;;;;;;5.55;2.00;;;;;;;17.61;100.00;102800.94;10372513;28;20042;-68
2023/09/03 19:15:42;;;;;;;4.65;1.70;;;;;;;17.49;100.00;102803.81;10359543;28;20046;-69
2023/09/03 19:20:42;;;;;;;5.18;2.30;;;;;;;17.36;100.00;102798.56;10365100;28;20034;-69
2023/09/03 19:25:47;;;;;;;6.15;2.85;;;;;;;17.23;100.00;102794.19;10354506;28;20112;-69
2023/09/03 19:30:48;;;;;;;5.70;3.00;;;;;;;17.19;100.00;102820.84;10348790;28;20049;-68
2023/09/03 19:35:56;;;;;;;5.03;2.97;;;;;;;17.05;100.00;102808.34;10346817;28;20042;-69
2023/09/03 19:40:56;;;;;;;6.28;3.35;;;;;;;16.91;100.00;102797.56;10358272;28;20038;-68
2023/09/03 19:45:57;;;;;;;4.97;3.63;;;;;;;16.74;100.00;102791.94;10350776;28;20614;-68
2023/09/03 19:50:58;;;;;;;7.10;4.40;;;;;;;16.68;100.00;102798.47;10349489;28;20038;-68
2023/09/03 19:56:03;;;;;;;6.20;4.80;;;;;;;16.54;100.00;102797.09;10350084;28;20062;-68
2023/09/03 20:01:04;;;;;;;10.32;4.93;;;;;;;16.33;100.00;102788.34;10407207;28;20041;-68
2023/09/03 20:06:05;;;;;;;6.55;4.90;;;;;;;16.27;100.00;102794.88;10419286;28;20044;-68
2023/09/03 20:11:07;;;;;;;7.18;4.97;;;;;;;15.88;100.00;102766.81;10442622;28;20037;-68
2023/09/03 20:16:08;;;;;;;7.40;5.60;;;;;;;16.09;100.00;102806.16;10443386;28;20041;-68
2023/09/03 20:21:10;;;;;;;7.90;5.47;;;;;;;15.99;100.00;102795.66;10426753;28;20093;-68
2023/09/03 20:26:10;;;;;;;10.32;6.60;;;;;;;15.90;100.00;102791.56;10424136;28;20049;-68
2023/09/03 20:31:11;;;;;;;11.65;6.85;;;;;;;15.84;100.00;102796.16;10442389;28;20057;-68
2023/09/03 20:36:11;;;;;;;7.82;6.10;;;;;;;15.74;100.00;102798.72;10420231;28;20072;-68
2023/09/03 20:41:12;;;;;;;10.43;7.00;;;;;;;15.64;100.00;102806.75;10436831;28;20054;-69
2023/09/03 20:46:12;;;;;;;7.38;5.85;;;;;;;15.45;100.00;102798.53;10439615;28;20057;-68
2023/09/03 20:51:13;;;;;;;10.25;6.47;;;;;;;15.43;100.00;102795.16;10447769;28;20044;-69
2023/09/03 20:56:13;;;;;;;9.48;6.60;;;;;;;15.41;100.00;102805.66;10440953;28;20083;-69
2023/09/03 21:01:14;;;;;;;9.25;7.30;;;;;;;15.33;100.00;102806.03;10408597;28;20099;-68
2023/09/03 21:06:15;;;;;;;8.88;6.20;;;;;;;15.23;100.00;102797.44;10429881;28;20093;-68
2023/09/03 21:11:15;;;;;;;9.07;6.85;;;;;;;15.13;100.00;102792.47;10424265;28;20036;-68
2023/09/03 21:16:15;;;;;;;9.02;6.70;;;;;;;15.11;100.00;102801.03;10424587;28;20052;-69
2023/09/03 21:21:16;;;;;;;11.60;8.25;;;;;;;14.98;100.00;102800.41;10426969;28;20045;-69
2023/09/03 21:26:16;;;;;;;11.82;7.55;;;;;;;14.92;100.00;102807.72;10442608;28;20042;-69
2023/09/03 21:31:18;;;;;;;10.68;7.60;;;;;;;14.83;100.00;102803.63;10446446;28;20041;-69
2023/09/03 21:36:19;;;;;;;14.80;8.07;;;;;;;14.79;100.00;102813.50;10421519;28;20048;-69
2023/09/03 21:41:19;;;;;;;14.80;10.07;;;;;;;14.65;100.00;102790.63;10440459;28;20072;-69
2023/09/03 21:46:20;;;;;;;11.23;8.65;;;;;;;14.66;100.00;102809.81;10441018;28;20034;-69
2023/09/03 21:51:20;;;;;;;13.88;9.00;;;;;;;14.51;100.00;102795.47;10413878;28;20067;-69
2023/09/03 21:56:20;;;;;;;13.05;9.40;;;;;;;14.53;100.00;102804.41;10420397;28;20207;-69
2023/09/03 22:01:21;;;;;;;13.98;9.75;;;;;;;14.45;100.00;102805.59;10423122;28;20044;-69
2023/09/03 22:06:22;;;;;;;11.70;8.88;;;;;;;14.36;100.00;102808.91;10439535;28;20041;-68
2023/09/03 22:11:22;;;;;;;16.27;10.77;;;;;;;14.29;100.00;102806.22;10422396;28;20041;-68
2023/09/03 22:16:23;;;;;;;15.18;11.32;;;;;;;14.27;100.00;102812.00;10419217;28;20097;-69
2023/09/03 22:21:23;;;;;;;16.17;10.45;;;;;;;14.15;100.00;102802.78;10437718;28;20553;-69
2023/09/03 22:26:24;;;;;;;15.80;11.43;;;;;;;13.92;100.00;102812.59;10441591;28;20595;-70
2023/09/03 22:31:24;;;;;;;18.52;11.63;;;;;;;14.06;100.00;102827.16;10437982;28;20053;-68
2023/09/03 22:36:25;;;;;;;16.42;10.95;;;;;;;13.91;100.00;102813.69;10438759;28;20056;-68
2023/09/03 22:41:25;;;;;;;18.65;12.32;;;;;;;13.90;100.00;102831.38;10422234;28;20053;-69